sensor_id;sensor_type;location;lat;lon;timestamp;P1;durP1;ratioP1;P2;durP2;ratioP2
85279;SDS011;75687;40.670;21.838;2024-01-27T00:02:14;4.40;;;2.10;;
85279;SDS011;75687;40.670;21.838;2024-01-27T00:04:44;5.90;;;2.20;;
85279;SDS011;75687;40.670;21.838;2024-01-27T00:07:15;2.00;;;1.60;;
85279;SDS011;75687;40.670;21.838;2024-01-27T00:09:46;5.10;;;1.80;;
85279;SDS011;75687;40.670;21.838;2024-01-27T00:12:17;5.10;;;2.10;;
85279;SDS011;75687;40.670;21.838;2024-01-27T00:14:47;2.10;;;1.80;;
85279;SDS011;75687;40.670;21.838;2024-01-27T00:17:18;5.90;;;2.00;;
85279;SDS011;75687;40.670;21.838;2024-01-27T00:19:53;4.90;;;2.00;;
85279;SDS011;75687;40.670;21.838;2024-01-27T00:22:23;3.50;;;2.30;;
85279;SDS011;75687;40.670;21.838;2024-01-27T00:24:54;2.90;;;1.50;;
85279;SDS011;75687;40.670;21.838;2024-01-27T00:27:24;4.60;;;1.80;;
85279;SDS011;75687;40.670;21.838;2024-01-27T00:32:24;4.60;;;1.90;;
85279;SDS011;75687;40.670;21.838;2024-01-27T00:34:54;3.50;;;1.70;;
85279;SDS011;75687;40.670;21.838;2024-01-27T00:39:54;5.70;;;1.70;;
85279;SDS011;75687;40.670;21.838;2024-01-27T00:44:54;2.80;;;2.00;;
85279;SDS011;75687;40.670;21.838;2024-01-27T00:47:24;2.90;;;1.80;;
85279;SDS011;75687;40.670;21.838;2024-01-27T00:49:55;3.20;;;1.70;;
85279;SDS011;75687;40.670;21.838;2024-01-27T00:54:54;2.80;;;1.50;;
85279;SDS011;75687;40.670;21.838;2024-01-27T00:59:54;4.80;;;2.20;;
85279;SDS011;75687;40.670;21.838;2024-01-27T01:02:24;4.50;;;2.60;;
85279;SDS011;75687;40.670;21.838;2024-01-27T01:04:55;6.00;;;2.30;;
85279;SDS011;75687;40.670;21.838;2024-01-27T01:07:25;3.10;;;2.20;;
85279;SDS011;75687;40.670;21.838;2024-01-27T01:09:55;4.20;;;1.70;;
85279;SDS011;75687;40.670;21.838;2024-01-27T01:14:55;3.30;;;1.60;;
85279;SDS011;75687;40.670;21.838;2024-01-27T01:17:26;2.70;;;1.70;;
85279;SDS011;75687;40.670;21.838;2024-01-27T01:19:56;3.20;;;1.90;;
85279;SDS011;75687;40.670;21.838;2024-01-27T01:22:27;3.90;;;2.30;;
85279;SDS011;75687;40.670;21.838;2024-01-27T01:24:57;4.30;;;2.20;;
85279;SDS011;75687;40.670;21.838;2024-01-27T01:27:28;5.50;;;2.10;;
85279;SDS011;75687;40.670;21.838;2024-01-27T01:29:58;3.50;;;1.80;;
85279;SDS011;75687;40.670;21.838;2024-01-27T01:32:29;3.80;;;1.70;;
85279;SDS011;75687;40.670;21.838;2024-01-27T01:35:00;5.10;;;2.10;;
85279;SDS011;75687;40.670;21.838;2024-01-27T01:37:31;4.40;;;2.00;;
85279;SDS011;75687;40.670;21.838;2024-01-27T01:40:02;4.70;;;1.90;;
85279;SDS011;75687;40.670;21.838;2024-01-27T01:42:35;5.70;;;2.10;;
85279;SDS011;75687;40.670;21.838;2024-01-27T01:47:35;5.20;;;2.00;;
85279;SDS011;75687;40.670;21.838;2024-01-27T01:50:07;3.90;;;2.30;;
85279;SDS011;75687;40.670;21.838;2024-01-27T01:52:38;6.50;;;2.20;;
85279;SDS011;75687;40.670;21.838;2024-01-27T01:55:09;4.40;;;2.40;;
85279;SDS011;75687;40.670;21.838;2024-01-27T01:57:40;4.00;;;1.70;;
85279;SDS011;75687;40.670;21.838;2024-01-27T02:00:11;3.70;;;2.00;;
85279;SDS011;75687;40.670;21.838;2024-01-27T02:02:43;3.80;;;1.70;;
85279;SDS011;75687;40.670;21.838;2024-01-27T02:05:14;3.60;;;2.00;;
85279;SDS011;75687;40.670;21.838;2024-01-27T02:10:14;3.50;;;1.90;;
85279;SDS011;75687;40.670;21.838;2024-01-27T02:12:45;3.10;;;2.30;;
85279;SDS011;75687;40.670;21.838;2024-01-27T02:15:16;2.80;;;2.10;;
85279;SDS011;75687;40.670;21.838;2024-01-27T02:17:47;1.80;;;1.30;;
85279;SDS011;75687;40.670;21.838;2024-01-27T02:20:17;4.20;;;1.70;;
85279;SDS011;75687;40.670;21.838;2024-01-27T02:22:48;3.30;;;1.60;;
85279;SDS011;75687;40.670;21.838;2024-01-27T02:25:18;4.00;;;1.60;;
85279;SDS011;75687;40.670;21.838;2024-01-27T02:27:49;2.90;;;2.40;;
85279;SDS011;75687;40.670;21.838;2024-01-27T02:30:19;4.40;;;2.50;;
85279;SDS011;75687;40.670;21.838;2024-01-27T02:32:50;2.60;;;1.60;;
85279;SDS011;75687;40.670;21.838;2024-01-27T02:35:21;4.60;;;2.30;;
85279;SDS011;75687;40.670;21.838;2024-01-27T02:37:51;2.10;;;1.40;;
85279;SDS011;75687;40.670;21.838;2024-01-27T02:40:22;2.90;;;2.10;;
85279;SDS011;75687;40.670;21.838;2024-01-27T02:42:53;3.30;;;1.80;;
85279;SDS011;75687;40.670;21.838;2024-01-27T02:45:23;4.80;;;1.90;;
85279;SDS011;75687;40.670;21.838;2024-01-27T02:47:54;3.60;;;1.70;;
85279;SDS011;75687;40.670;21.838;2024-01-27T02:50:25;4.30;;;1.70;;
85279;SDS011;75687;40.670;21.838;2024-01-27T02:52:55;4.90;;;1.70;;
85279;SDS011;75687;40.670;21.838;2024-01-27T02:55:25;5.00;;;2.00;;
85279;SDS011;75687;40.670;21.838;2024-01-27T02:57:56;2.10;;;1.90;;
85279;SDS011;75687;40.670;21.838;2024-01-27T03:02:56;5.80;;;1.90;;
85279;SDS011;75687;40.670;21.838;2024-01-27T03:05:27;3.10;;;1.60;;
85279;SDS011;75687;40.670;21.838;2024-01-27T03:10:27;2.90;;;1.40;;
85279;SDS011;75687;40.670;21.838;2024-01-27T03:12:59;2.70;;;1.60;;
85279;SDS011;75687;40.670;21.838;2024-01-27T03:15:29;4.80;;;1.80;;
85279;SDS011;75687;40.670;21.838;2024-01-27T03:18:00;3.40;;;2.00;;
85279;SDS011;75687;40.670;21.838;2024-01-27T03:20:30;5.50;;;1.90;;
85279;SDS011;75687;40.670;21.838;2024-01-27T03:23:01;3.30;;;1.30;;
85279;SDS011;75687;40.670;21.838;2024-01-27T03:25:31;3.10;;;1.90;;
85279;SDS011;75687;40.670;21.838;2024-01-27T03:28:02;4.20;;;1.80;;
85279;SDS011;75687;40.670;21.838;2024-01-27T03:30:34;2.50;;;1.40;;
85279;SDS011;75687;40.670;21.838;2024-01-27T03:33:05;4.40;;;2.00;;
85279;SDS011;75687;40.670;21.838;2024-01-27T03:35:39;4.90;;;2.00;;
85279;SDS011;75687;40.670;21.838;2024-01-27T03:38:10;3.40;;;1.70;;
85279;SDS011;75687;40.670;21.838;2024-01-27T03:40:40;3.30;;;1.50;;
85279;SDS011;75687;40.670;21.838;2024-01-27T03:43:11;4.50;;;1.80;;
85279;SDS011;75687;40.670;21.838;2024-01-27T03:45:42;3.00;;;1.60;;
85279;SDS011;75687;40.670;21.838;2024-01-27T03:48:12;3.50;;;1.60;;
85279;SDS011;75687;40.670;21.838;2024-01-27T03:50:43;4.30;;;1.90;;
85279;SDS011;75687;40.670;21.838;2024-01-27T03:53:13;3.70;;;1.50;;
85279;SDS011;75687;40.670;21.838;2024-01-27T03:58:13;2.60;;;1.80;;
85279;SDS011;75687;40.670;21.838;2024-01-27T04:00:44;3.20;;;1.80;;
85279;SDS011;75687;40.670;21.838;2024-01-27T04:03:15;5.10;;;2.30;;
85279;SDS011;75687;40.670;21.838;2024-01-27T04:05:46;4.60;;;2.70;;
85279;SDS011;75687;40.670;21.838;2024-01-27T04:08:17;2.50;;;1.40;;
85279;SDS011;75687;40.670;21.838;2024-01-27T04:10:47;3.90;;;2.20;;
85279;SDS011;75687;40.670;21.838;2024-01-27T04:13:18;2.20;;;1.30;;
85279;SDS011;75687;40.670;21.838;2024-01-27T04:15:48;3.40;;;1.60;;
85279;SDS011;75687;40.670;21.838;2024-01-27T04:18:19;2.90;;;1.40;;
85279;SDS011;75687;40.670;21.838;2024-01-27T04:20:50;3.60;;;1.70;;
85279;SDS011;75687;40.670;21.838;2024-01-27T04:23:20;4.10;;;1.80;;
85279;SDS011;75687;40.670;21.838;2024-01-27T04:25:51;2.70;;;1.90;;
85279;SDS011;75687;40.670;21.838;2024-01-27T04:28:21;3.00;;;2.00;;
85279;SDS011;75687;40.670;21.838;2024-01-27T04:30:52;2.60;;;1.60;;
85279;SDS011;75687;40.670;21.838;2024-01-27T04:33:23;3.20;;;1.60;;
85279;SDS011;75687;40.670;21.838;2024-01-27T04:35:53;5.90;;;1.50;;
85279;SDS011;75687;40.670;21.838;2024-01-27T04:38:24;3.10;;;1.50;;
85279;SDS011;75687;40.670;21.838;2024-01-27T04:43:23;2.90;;;1.40;;
85279;SDS011;75687;40.670;21.838;2024-01-27T04:45:54;1.70;;;1.20;;
85279;SDS011;75687;40.670;21.838;2024-01-27T04:50:53;3.20;;;1.50;;
85279;SDS011;75687;40.670;21.838;2024-01-27T04:53:24;3.40;;;1.50;;
85279;SDS011;75687;40.670;21.838;2024-01-27T04:55:55;3.40;;;1.30;;
85279;SDS011;75687;40.670;21.838;2024-01-27T04:58:25;4.60;;;2.30;;
85279;SDS011;75687;40.670;21.838;2024-01-27T05:03:25;2.00;;;1.60;;
85279;SDS011;75687;40.670;21.838;2024-01-27T05:05:55;3.50;;;2.30;;
85279;SDS011;75687;40.670;21.838;2024-01-27T05:08:26;2.40;;;1.50;;
85279;SDS011;75687;40.670;21.838;2024-01-27T05:10:56;2.50;;;2.30;;
85279;SDS011;75687;40.670;21.838;2024-01-27T05:13:27;3.90;;;1.90;;
85279;SDS011;75687;40.670;21.838;2024-01-27T05:15:57;2.70;;;1.90;;
85279;SDS011;75687;40.670;21.838;2024-01-27T05:18:53;7.50;;;3.30;;
85279;SDS011;75687;40.670;21.838;2024-01-27T05:24:18;4.60;;;2.50;;
85279;SDS011;75687;40.670;21.838;2024-01-27T05:26:48;5.30;;;2.30;;
85279;SDS011;75687;40.670;21.838;2024-01-27T05:29:18;2.60;;;1.90;;
85279;SDS011;75687;40.670;21.838;2024-01-27T05:31:49;6.30;;;2.40;;
85279;SDS011;75687;40.670;21.838;2024-01-27T05:34:20;3.90;;;1.80;;
85279;SDS011;75687;40.670;21.838;2024-01-27T05:36:50;2.70;;;2.10;;
85279;SDS011;75687;40.670;21.838;2024-01-27T05:39:21;3.40;;;1.80;;
85279;SDS011;75687;40.670;21.838;2024-01-27T05:41:51;3.50;;;1.80;;
85279;SDS011;75687;40.670;21.838;2024-01-27T05:44:22;2.00;;;1.50;;
85279;SDS011;75687;40.670;21.838;2024-01-27T05:46:52;2.50;;;1.30;;
85279;SDS011;75687;40.670;21.838;2024-01-27T05:51:52;2.90;;;1.40;;
85279;SDS011;75687;40.670;21.838;2024-01-27T05:56:51;6.80;;;1.90;;
85279;SDS011;75687;40.670;21.838;2024-01-27T05:59:22;1.90;;;1.40;;
85279;SDS011;75687;40.670;21.838;2024-01-27T06:01:52;7.60;;;3.20;;
85279;SDS011;75687;40.670;21.838;2024-01-27T06:04:23;4.10;;;2.60;;
85279;SDS011;75687;40.670;21.838;2024-01-27T06:06:53;10.20;;;4.80;;
85279;SDS011;75687;40.670;21.838;2024-01-27T06:09:24;11.40;;;6.70;;
85279;SDS011;75687;40.670;21.838;2024-01-27T06:11:57;9.90;;;5.90;;
85279;SDS011;75687;40.670;21.838;2024-01-27T06:14:28;8.40;;;4.60;;
85279;SDS011;75687;40.670;21.838;2024-01-27T06:16:59;6.60;;;3.60;;
85279;SDS011;75687;40.670;21.838;2024-01-27T06:19:29;4.90;;;2.50;;
85279;SDS011;75687;40.670;21.838;2024-01-27T06:22:00;6.50;;;2.30;;
85279;SDS011;75687;40.670;21.838;2024-01-27T06:24:33;4.60;;;2.20;;
85279;SDS011;75687;40.670;21.838;2024-01-27T06:27:04;5.90;;;2.30;;
85279;SDS011;75687;40.670;21.838;2024-01-27T06:29:34;3.60;;;2.80;;
85279;SDS011;75687;40.670;21.838;2024-01-27T06:32:05;4.90;;;2.40;;
85279;SDS011;75687;40.670;21.838;2024-01-27T06:34:38;7.50;;;2.50;;
85279;SDS011;75687;40.670;21.838;2024-01-27T06:37:09;5.60;;;2.00;;
85279;SDS011;75687;40.670;21.838;2024-01-27T06:42:08;4.60;;;2.10;;
85279;SDS011;75687;40.670;21.838;2024-01-27T06:44:39;4.90;;;1.90;;
85279;SDS011;75687;40.670;21.838;2024-01-27T06:49:38;3.70;;;1.70;;
85279;SDS011;75687;40.670;21.838;2024-01-27T06:52:09;4.30;;;2.80;;
85279;SDS011;75687;40.670;21.838;2024-01-27T06:54:40;2.70;;;1.60;;
85279;SDS011;75687;40.670;21.838;2024-01-27T06:57:18;4.00;;;2.20;;
85279;SDS011;75687;40.670;21.838;2024-01-27T06:59:49;4.10;;;2.60;;
85279;SDS011;75687;40.670;21.838;2024-01-27T07:02:23;2.30;;;1.80;;
85279;SDS011;75687;40.670;21.838;2024-01-27T07:04:54;4.30;;;1.60;;
85279;SDS011;75687;40.670;21.838;2024-01-27T07:07:25;3.70;;;1.30;;
85279;SDS011;75687;40.670;21.838;2024-01-27T07:09:57;3.30;;;1.50;;
85279;SDS011;75687;40.670;21.838;2024-01-27T07:12:27;3.90;;;1.50;;
85279;SDS011;75687;40.670;21.838;2024-01-27T07:14:58;3.40;;;1.50;;
85279;SDS011;75687;40.670;21.838;2024-01-27T07:17:29;7.10;;;2.30;;
85279;SDS011;75687;40.670;21.838;2024-01-27T07:20:00;2.50;;;1.60;;
85279;SDS011;75687;40.670;21.838;2024-01-27T07:22:31;2.40;;;1.90;;
85279;SDS011;75687;40.670;21.838;2024-01-27T07:25:01;4.30;;;2.60;;
85279;SDS011;75687;40.670;21.838;2024-01-27T07:27:33;7.70;;;2.70;;
85279;SDS011;75687;40.670;21.838;2024-01-27T07:30:05;3.70;;;2.00;;
85279;SDS011;75687;40.670;21.838;2024-01-27T07:32:37;6.40;;;5.10;;
85279;SDS011;75687;40.670;21.838;2024-01-27T07:35:09;4.50;;;1.80;;
85279;SDS011;75687;40.670;21.838;2024-01-27T07:37:40;5.30;;;4.20;;
85279;SDS011;75687;40.670;21.838;2024-01-27T07:40:12;29.20;;;15.70;;
85279;SDS011;75687;40.670;21.838;2024-01-27T07:42:43;13.30;;;6.60;;
85279;SDS011;75687;40.670;21.838;2024-01-27T07:45:13;9.90;;;4.40;;
85279;SDS011;75687;40.670;21.838;2024-01-27T07:47:44;15.20;;;4.10;;
85279;SDS011;75687;40.670;21.838;2024-01-27T07:50:15;10.40;;;4.50;;
85279;SDS011;75687;40.670;21.838;2024-01-27T07:52:45;11.70;;;5.00;;
85279;SDS011;75687;40.670;21.838;2024-01-27T07:55:16;14.30;;;5.20;;
85279;SDS011;75687;40.670;21.838;2024-01-27T07:57:46;10.90;;;5.30;;
85279;SDS011;75687;40.670;21.838;2024-01-27T08:00:18;8.00;;;4.70;;
85279;SDS011;75687;40.670;21.838;2024-01-27T08:02:49;10.30;;;5.10;;
85279;SDS011;75687;40.670;21.838;2024-01-27T08:05:20;12.70;;;5.20;;
85279;SDS011;75687;40.670;21.838;2024-01-27T08:07:50;7.60;;;3.30;;
85279;SDS011;75687;40.670;21.838;2024-01-27T08:10:21;8.60;;;3.80;;
85279;SDS011;75687;40.670;21.838;2024-01-27T08:12:52;7.20;;;3.20;;
85279;SDS011;75687;40.670;21.838;2024-01-27T08:15:22;5.60;;;2.60;;
85279;SDS011;75687;40.670;21.838;2024-01-27T08:17:53;4.90;;;2.20;;
85279;SDS011;75687;40.670;21.838;2024-01-27T08:20:23;3.40;;;2.20;;
85279;SDS011;75687;40.670;21.838;2024-01-27T08:22:53;4.60;;;2.50;;
85279;SDS011;75687;40.670;21.838;2024-01-27T08:25:24;5.80;;;2.50;;
85279;SDS011;75687;40.670;21.838;2024-01-27T08:27:54;4.60;;;2.30;;
85279;SDS011;75687;40.670;21.838;2024-01-27T08:30:25;4.30;;;2.10;;
85279;SDS011;75687;40.670;21.838;2024-01-27T08:32:55;4.30;;;1.90;;
85279;SDS011;75687;40.670;21.838;2024-01-27T08:35:26;2.90;;;1.80;;
85279;SDS011;75687;40.670;21.838;2024-01-27T08:37:57;9.60;;;5.30;;
85279;SDS011;75687;40.670;21.838;2024-01-27T08:40:27;7.40;;;3.10;;
85279;SDS011;75687;40.670;21.838;2024-01-27T08:42:57;4.30;;;2.40;;
85279;SDS011;75687;40.670;21.838;2024-01-27T08:45:28;5.20;;;2.50;;
85279;SDS011;75687;40.670;21.838;2024-01-27T08:47:59;5.40;;;2.20;;
85279;SDS011;75687;40.670;21.838;2024-01-27T08:50:29;3.90;;;1.90;;
85279;SDS011;75687;40.670;21.838;2024-01-27T08:53:00;8.00;;;2.00;;
85279;SDS011;75687;40.670;21.838;2024-01-27T08:55:31;3.90;;;2.10;;
85279;SDS011;75687;40.670;21.838;2024-01-27T08:58:04;5.60;;;2.20;;
85279;SDS011;75687;40.670;21.838;2024-01-27T09:00:35;4.20;;;1.90;;
85279;SDS011;75687;40.670;21.838;2024-01-27T09:03:06;2.80;;;1.80;;
85279;SDS011;75687;40.670;21.838;2024-01-27T09:05:36;2.70;;;1.80;;
85279;SDS011;75687;40.670;21.838;2024-01-27T09:08:08;3.70;;;2.20;;
85279;SDS011;75687;40.670;21.838;2024-01-27T09:10:39;4.40;;;2.00;;
85279;SDS011;75687;40.670;21.838;2024-01-27T09:13:09;4.10;;;1.90;;
85279;SDS011;75687;40.670;21.838;2024-01-27T09:15:40;5.10;;;2.20;;
85279;SDS011;75687;40.670;21.838;2024-01-27T09:18:10;5.50;;;2.80;;
85279;SDS011;75687;40.670;21.838;2024-01-27T09:20:43;2.30;;;1.70;;
85279;SDS011;75687;40.670;21.838;2024-01-27T09:23:13;3.90;;;1.70;;
85279;SDS011;75687;40.670;21.838;2024-01-27T09:25:44;4.40;;;2.80;;
85279;SDS011;75687;40.670;21.838;2024-01-27T09:28:14;2.30;;;1.50;;
85279;SDS011;75687;40.670;21.838;2024-01-27T09:30:45;2.30;;;1.20;;
85279;SDS011;75687;40.670;21.838;2024-01-27T09:33:16;3.90;;;1.80;;
85279;SDS011;75687;40.670;21.838;2024-01-27T09:35:48;6.90;;;2.40;;
85279;SDS011;75687;40.670;21.838;2024-01-27T09:38:18;7.80;;;3.80;;
85279;SDS011;75687;40.670;21.838;2024-01-27T09:40:48;5.80;;;3.50;;
85279;SDS011;75687;40.670;21.838;2024-01-27T09:43:19;4.60;;;3.00;;
85279;SDS011;75687;40.670;21.838;2024-01-27T09:45:49;4.80;;;2.40;;
85279;SDS011;75687;40.670;21.838;2024-01-27T09:48:20;6.30;;;2.70;;
85279;SDS011;75687;40.670;21.838;2024-01-27T09:50:50;4.80;;;2.40;;
85279;SDS011;75687;40.670;21.838;2024-01-27T09:53:22;4.20;;;2.40;;
85279;SDS011;75687;40.670;21.838;2024-01-27T09:55:52;2.70;;;1.90;;
85279;SDS011;75687;40.670;21.838;2024-01-27T09:58:24;5.60;;;2.30;;
85279;SDS011;75687;40.670;21.838;2024-01-27T10:00:55;4.30;;;2.40;;
85279;SDS011;75687;40.670;21.838;2024-01-27T10:03:27;4.40;;;2.20;;
85279;SDS011;75687;40.670;21.838;2024-01-27T10:05:58;5.00;;;3.60;;
85279;SDS011;75687;40.670;21.838;2024-01-27T10:08:29;2.70;;;2.20;;
85279;SDS011;75687;40.670;21.838;2024-01-27T10:10:59;4.40;;;2.30;;
85279;SDS011;75687;40.670;21.838;2024-01-27T10:13:29;4.90;;;2.80;;
85279;SDS011;75687;40.670;21.838;2024-01-27T10:16:01;4.70;;;2.50;;
85279;SDS011;75687;40.670;21.838;2024-01-27T10:18:32;4.70;;;2.70;;
85279;SDS011;75687;40.670;21.838;2024-01-27T10:21:12;4.40;;;1.90;;
85279;SDS011;75687;40.670;21.838;2024-01-27T10:23:43;5.30;;;3.30;;
85279;SDS011;75687;40.670;21.838;2024-01-27T10:26:13;13.20;;;5.10;;
85279;SDS011;75687;40.670;21.838;2024-01-27T10:28:51;7.60;;;4.00;;
85279;SDS011;75687;40.670;21.838;2024-01-27T10:31:26;4.70;;;3.20;;
85279;SDS011;75687;40.670;21.838;2024-01-27T10:33:57;6.70;;;3.80;;
85279;SDS011;75687;40.670;21.838;2024-01-27T10:36:38;6.80;;;4.90;;
85279;SDS011;75687;40.670;21.838;2024-01-27T10:39:19;7.30;;;4.40;;
85279;SDS011;75687;40.670;21.838;2024-01-27T10:41:51;5.00;;;2.90;;
85279;SDS011;75687;40.670;21.838;2024-01-27T10:44:22;9.90;;;3.80;;
85279;SDS011;75687;40.670;21.838;2024-01-27T10:46:53;7.10;;;3.60;;
85279;SDS011;75687;40.670;21.838;2024-01-27T10:49:25;6.60;;;3.70;;
85279;SDS011;75687;40.670;21.838;2024-01-27T10:51:56;7.20;;;3.70;;
85279;SDS011;75687;40.670;21.838;2024-01-27T10:54:29;5.60;;;3.40;;
85279;SDS011;75687;40.670;21.838;2024-01-27T10:57:00;7.90;;;3.40;;
85279;SDS011;75687;40.670;21.838;2024-01-27T10:59:31;9.00;;;3.40;;
85279;SDS011;75687;40.670;21.838;2024-01-27T11:02:03;6.30;;;2.70;;
85279;SDS011;75687;40.670;21.838;2024-01-27T11:04:33;7.40;;;4.00;;
85279;SDS011;75687;40.670;21.838;2024-01-27T11:07:06;4.40;;;2.90;;
85279;SDS011;75687;40.670;21.838;2024-01-27T11:09:36;5.80;;;3.20;;
85279;SDS011;75687;40.670;21.838;2024-01-27T11:12:07;6.80;;;3.80;;
85279;SDS011;75687;40.670;21.838;2024-01-27T11:14:38;5.90;;;3.10;;
85279;SDS011;75687;40.670;21.838;2024-01-27T11:17:10;4.50;;;3.30;;
85279;SDS011;75687;40.670;21.838;2024-01-27T11:19:40;8.00;;;3.90;;
85279;SDS011;75687;40.670;21.838;2024-01-27T11:22:22;7.00;;;3.70;;
85279;SDS011;75687;40.670;21.838;2024-01-27T11:25:06;5.00;;;3.10;;
85279;SDS011;75687;40.670;21.838;2024-01-27T11:27:37;4.90;;;2.30;;
85279;SDS011;75687;40.670;21.838;2024-01-27T11:30:12;5.20;;;2.30;;
85279;SDS011;75687;40.670;21.838;2024-01-27T11:32:56;5.90;;;3.00;;
85279;SDS011;75687;40.670;21.838;2024-01-27T11:35:29;4.40;;;2.50;;
85279;SDS011;75687;40.670;21.838;2024-01-27T11:37:59;4.70;;;3.30;;
85279;SDS011;75687;40.670;21.838;2024-01-27T11:40:30;9.60;;;4.00;;
85279;SDS011;75687;40.670;21.838;2024-01-27T11:43:01;7.80;;;3.40;;
85279;SDS011;75687;40.670;21.838;2024-01-27T11:45:33;6.80;;;3.70;;
85279;SDS011;75687;40.670;21.838;2024-01-27T11:48:05;4.70;;;3.00;;
85279;SDS011;75687;40.670;21.838;2024-01-27T11:50:36;5.10;;;2.90;;
85279;SDS011;75687;40.670;21.838;2024-01-27T11:53:06;6.10;;;3.30;;
85279;SDS011;75687;40.670;21.838;2024-01-27T11:55:38;3.60;;;2.80;;
85279;SDS011;75687;40.670;21.838;2024-01-27T11:58:10;5.00;;;4.10;;
85279;SDS011;75687;40.670;21.838;2024-01-27T12:00:40;4.60;;;3.20;;
85279;SDS011;75687;40.670;21.838;2024-01-27T12:03:10;5.40;;;4.40;;
85279;SDS011;75687;40.670;21.838;2024-01-27T12:05:41;6.00;;;3.90;;
85279;SDS011;75687;40.670;21.838;2024-01-27T12:08:12;7.40;;;4.50;;
85279;SDS011;75687;40.670;21.838;2024-01-27T12:10:42;7.60;;;5.10;;
85279;SDS011;75687;40.670;21.838;2024-01-27T12:13:13;7.60;;;4.40;;
85279;SDS011;75687;40.670;21.838;2024-01-27T12:15:44;10.00;;;6.00;;
85279;SDS011;75687;40.670;21.838;2024-01-27T12:18:16;11.90;;;5.40;;
85279;SDS011;75687;40.670;21.838;2024-01-27T12:20:55;10.30;;;5.80;;
85279;SDS011;75687;40.670;21.838;2024-01-27T12:23:26;7.20;;;4.80;;
85279;SDS011;75687;40.670;21.838;2024-01-27T12:25:56;10.90;;;5.80;;
85279;SDS011;75687;40.670;21.838;2024-01-27T12:28:27;10.30;;;6.40;;
85279;SDS011;75687;40.670;21.838;2024-01-27T12:30:57;11.50;;;5.20;;
85279;SDS011;75687;40.670;21.838;2024-01-27T12:33:28;11.20;;;5.90;;
85279;SDS011;75687;40.670;21.838;2024-01-27T12:35:59;7.40;;;4.60;;
85279;SDS011;75687;40.670;21.838;2024-01-27T12:38:29;6.20;;;3.90;;
85279;SDS011;75687;40.670;21.838;2024-01-27T12:41:00;9.20;;;5.70;;
85279;SDS011;75687;40.670;21.838;2024-01-27T12:43:30;9.30;;;4.90;;
85279;SDS011;75687;40.670;21.838;2024-01-27T12:46:01;12.20;;;5.50;;
85279;SDS011;75687;40.670;21.838;2024-01-27T12:48:32;8.50;;;4.00;;
85279;SDS011;75687;40.670;21.838;2024-01-27T12:51:03;8.60;;;4.40;;
85279;SDS011;75687;40.670;21.838;2024-01-27T12:53:34;8.40;;;5.20;;
85279;SDS011;75687;40.670;21.838;2024-01-27T12:56:07;6.80;;;3.50;;
85279;SDS011;75687;40.670;21.838;2024-01-27T12:58:37;8.10;;;3.90;;
85279;SDS011;75687;40.670;21.838;2024-01-27T13:01:08;8.40;;;4.10;;
85279;SDS011;75687;40.670;21.838;2024-01-27T13:03:39;6.00;;;3.80;;
85279;SDS011;75687;40.670;21.838;2024-01-27T13:06:12;6.80;;;3.70;;
85279;SDS011;75687;40.670;21.838;2024-01-27T13:08:42;6.50;;;4.20;;
85279;SDS011;75687;40.670;21.838;2024-01-27T13:11:12;6.40;;;4.10;;
85279;SDS011;75687;40.670;21.838;2024-01-27T13:13:43;7.80;;;4.60;;
85279;SDS011;75687;40.670;21.838;2024-01-27T13:16:17;6.90;;;3.60;;
85279;SDS011;75687;40.670;21.838;2024-01-27T13:18:47;5.00;;;3.50;;
85279;SDS011;75687;40.670;21.838;2024-01-27T13:21:18;7.30;;;4.20;;
85279;SDS011;75687;40.670;21.838;2024-01-27T13:23:49;6.60;;;4.10;;
85279;SDS011;75687;40.670;21.838;2024-01-27T13:26:20;5.90;;;3.70;;
85279;SDS011;75687;40.670;21.838;2024-01-27T13:28:53;6.20;;;3.20;;
85279;SDS011;75687;40.670;21.838;2024-01-27T13:31:24;4.60;;;2.60;;
85279;SDS011;75687;40.670;21.838;2024-01-27T13:33:56;6.20;;;3.60;;
85279;SDS011;75687;40.670;21.838;2024-01-27T13:36:27;4.00;;;2.70;;
85279;SDS011;75687;40.670;21.838;2024-01-27T13:38:57;5.40;;;2.60;;
85279;SDS011;75687;40.670;21.838;2024-01-27T13:41:28;6.80;;;3.70;;
85279;SDS011;75687;40.670;21.838;2024-01-27T13:43:58;6.40;;;3.60;;
85279;SDS011;75687;40.670;21.838;2024-01-27T13:46:28;8.10;;;3.20;;
85279;SDS011;75687;40.670;21.838;2024-01-27T13:48:59;4.80;;;3.20;;
85279;SDS011;75687;40.670;21.838;2024-01-27T13:51:29;5.00;;;2.70;;
85279;SDS011;75687;40.670;21.838;2024-01-27T13:54:00;6.50;;;3.50;;
85279;SDS011;75687;40.670;21.838;2024-01-27T13:56:31;7.40;;;3.90;;
85279;SDS011;75687;40.670;21.838;2024-01-27T13:59:01;7.30;;;4.00;;
85279;SDS011;75687;40.670;21.838;2024-01-27T14:01:34;6.40;;;3.70;;
85279;SDS011;75687;40.670;21.838;2024-01-27T14:04:05;6.70;;;3.40;;
85279;SDS011;75687;40.670;21.838;2024-01-27T14:06:36;6.90;;;3.70;;
85279;SDS011;75687;40.670;21.838;2024-01-27T14:09:06;6.00;;;3.40;;
85279;SDS011;75687;40.670;21.838;2024-01-27T14:11:37;5.30;;;3.60;;
85279;SDS011;75687;40.670;21.838;2024-01-27T14:14:08;4.60;;;2.90;;
85279;SDS011;75687;40.670;21.838;2024-01-27T14:16:43;11.00;;;3.50;;
85279;SDS011;75687;40.670;21.838;2024-01-27T14:19:13;5.20;;;2.80;;
85279;SDS011;75687;40.670;21.838;2024-01-27T14:21:44;5.10;;;2.90;;
85279;SDS011;75687;40.670;21.838;2024-01-27T14:24:14;6.70;;;3.40;;
85279;SDS011;75687;40.670;21.838;2024-01-27T14:26:45;6.70;;;3.90;;
85279;SDS011;75687;40.670;21.838;2024-01-27T14:29:15;6.30;;;3.20;;
85279;SDS011;75687;40.670;21.838;2024-01-27T14:31:45;6.20;;;3.30;;
85279;SDS011;75687;40.670;21.838;2024-01-27T14:34:16;3.60;;;2.80;;
85279;SDS011;75687;40.670;21.838;2024-01-27T14:36:47;6.50;;;2.80;;
85279;SDS011;75687;40.670;21.838;2024-01-27T14:39:18;7.30;;;3.20;;
85279;SDS011;75687;40.670;21.838;2024-01-27T14:41:48;7.70;;;4.70;;
85279;SDS011;75687;40.670;21.838;2024-01-27T14:44:18;7.80;;;3.70;;
85279;SDS011;75687;40.670;21.838;2024-01-27T14:46:50;7.40;;;3.90;;
85279;SDS011;75687;40.670;21.838;2024-01-27T14:49:20;7.60;;;3.80;;
85279;SDS011;75687;40.670;21.838;2024-01-27T14:51:51;9.00;;;3.90;;
85279;SDS011;75687;40.670;21.838;2024-01-27T14:54:21;8.30;;;4.10;;
85279;SDS011;75687;40.670;21.838;2024-01-27T14:56:52;7.20;;;3.70;;
85279;SDS011;75687;40.670;21.838;2024-01-27T14:59:23;8.40;;;4.90;;
85279;SDS011;75687;40.670;21.838;2024-01-27T15:01:53;8.40;;;4.10;;
85279;SDS011;75687;40.670;21.838;2024-01-27T15:04:25;5.10;;;3.00;;
85279;SDS011;75687;40.670;21.838;2024-01-27T15:06:56;6.20;;;3.10;;
85279;SDS011;75687;40.670;21.838;2024-01-27T15:09:27;4.40;;;3.20;;
85279;SDS011;75687;40.670;21.838;2024-01-27T15:11:57;4.10;;;2.50;;
85279;SDS011;75687;40.670;21.838;2024-01-27T15:14:27;3.80;;;2.70;;
85279;SDS011;75687;40.670;21.838;2024-01-27T15:16:59;4.60;;;2.70;;
85279;SDS011;75687;40.670;21.838;2024-01-27T15:19:30;3.20;;;2.60;;
85279;SDS011;75687;40.670;21.838;2024-01-27T15:22:07;5.00;;;2.00;;
85279;SDS011;75687;40.670;21.838;2024-01-27T15:24:38;5.90;;;2.30;;
85279;SDS011;75687;40.670;21.838;2024-01-27T15:27:08;3.80;;;2.90;;
85279;SDS011;75687;40.670;21.838;2024-01-27T15:29:39;4.90;;;2.30;;
85279;SDS011;75687;40.670;21.838;2024-01-27T15:32:11;2.90;;;2.20;;
85279;SDS011;75687;40.670;21.838;2024-01-27T15:34:45;4.20;;;2.10;;
85279;SDS011;75687;40.670;21.838;2024-01-27T15:37:16;5.00;;;2.50;;
85279;SDS011;75687;40.670;21.838;2024-01-27T15:39:46;4.50;;;2.60;;
85279;SDS011;75687;40.670;21.838;2024-01-27T15:42:16;3.50;;;2.40;;
85279;SDS011;75687;40.670;21.838;2024-01-27T15:44:47;6.70;;;2.90;;